Flight Track Log - Related Links

Times and Time Zones

All times are in EDT time to prevent confusion due to time zone crossing. See the EGF4178 flight status page for this flight to view local times or setup timezone preferences in your user account.

Time Position Orientation Groundspeed Altitude Reporting Facility
EDT Latitude Longitude Course Direction KTS MPH feet Rate Location/Type
Tue 09:24:48 PM 41.9167 -87.9000 197° South 198 228 3,000  Level Chicago TRACON
Tue 09:25:27 PM 41.8697 -87.8936 174° South 214 246 3,800 1,663 Climbing Chicago Center
Tue 09:26:00 PM 41.7279 -87.9564 189° South  Level Estimated
Tue 09:26:29 PM 41.7944 -87.8803 172° South 266 306 5,800  Level Chicago Center
Tue 09:27:00 PM 41.6432 -87.9722 188° South  Level FlightAware Approximate
Tue 09:27:30 PM 41.7169 -87.8900 185° South 282 325 8,300  Level Chicago Center
Tue 09:28:00 PM 41.5586 -87.9887 189° South  Level Estimated
Tue 09:28:32 PM 41.6414 -87.9253 199° South 290 334 10,500  Level Chicago Center
Tue 09:29:00 PM 41.4740 -88.0054 188° South  Level FlightAware Approximate
Tue 09:29:34 PM 41.5619 -87.9611 199° South 301 346 12,600  Level Chicago Center
Tue 09:30:00 PM 41.4018 -88.0194 197° South  Level Estimated
Tue 09:30:36 PM 41.4797 -87.9981 199° South 310 357 14,900  Level Chicago Center
Tue 09:31:38 PM 41.3811 -88.0428 199° South 317 365 16,900 1,016 Climbing Chicago Center
Tue 09:32:40 PM 41.2992 -88.0672 193° South 328 377 17,000 49 Climbing Chicago Center
Tue 09:33:41 PM 41.2142 -88.0908 192° South 318 366 17,000 -585 Level Chicago Center
Tue 09:34:43 PM 41.1056 -88.1022 185° South 328 377 15,800 -1,317 Descending Chicago Center
Tue 09:35:44 PM 41.0172 -88.1122 185° South 322 371 14,300 -1,415 Descending Chicago Center
Tue 09:36:46 PM 40.9286 -88.1225 185° South 321 369 12,900 -1,403 Descending Chicago Center
Tue 09:37:48 PM 40.8419 -88.1331 185° South 318 366 11,400 -919 Descending Chicago Center
Tue 09:38:50 PM 40.7592 -88.1431 185° South 306 352 11,000 -146 Descending Chicago Center
Tue 09:39:51 PM 40.6794 -88.1650 192° South 305 351 11,100 -195 Climbing Chicago Center
Tue 09:40:53 PM 40.5894 -88.1983 196° South 288 331 10,600 -1,220 Descending Chicago Center
Tue 09:41:54 PM 40.5164 -88.2267 196° South 278 320 8,600 -1,756 Descending Chicago Center
Tue 09:42:56 PM 40.4478 -88.2667 204° Southwest 274 315 7,000 -1,463 Descending Chicago Center
Tue 09:43:57 PM 40.3842 -88.3061 205° Southwest 264 304 5,600 -1,415 Descending Chicago Center
Tue 09:44:59 PM 40.3261 -88.3453 207° Southwest 249 287 4,100 -1,220 Descending Chicago Center
Tue 09:46:00 PM 40.2675 -88.3800 204° Southwest 240 276 3,100 -984 Descending Chicago Center

Login

Don't have an account? Register now (free) for customized features, flight alerts, and more!